Time;durP1;ratioP1;P1;durP2;ratioP2;P2;SDS_P1;SDS_P2;PMS_P1;PMS_P2;Temp;Humidity;BMP_temperature;BMP_pressure;BME280_temperature;BME280_humidity;BME280_pressure;Samples;Min_cycle;Max_cycle;Signal;HPM_P1;HPM_P2
2022/09/30 00:01:38;;;;;;;;;;;17.40;69.70;;;;;;4998774;28;92739;-41
2022/09/30 00:04:04;;;;;;;;;;;17.40;69.70;;;;;;4998321;28;92902;-42
2022/09/30 00:06:30;;;;;;;;;;;17.40;69.70;;;;;;4998364;28;93089;-41
2022/09/30 00:08:56;;;;;;;;;;;17.40;69.70;;;;;;4998217;28;93324;-42
2022/09/30 00:11:27;;;;;;;;;;;17.40;69.70;;;;;;4998291;28;92948;-41
2022/09/30 00:13:54;;;;;;;;;;;17.40;69.60;;;;;;5002067;28;92021;-41
2022/09/30 00:16:20;;;;;;;;;;;17.40;69.60;;;;;;4998177;28;93196;-41
2022/09/30 00:18:46;;;;;;;;;;;17.40;69.60;;;;;;4997329;28;92119;-41
2022/09/30 00:21:12;;;;;;;;;;;17.40;69.70;;;;;;4998797;28;92323;-41
2022/09/30 00:23:38;;;;;;;;;;;17.30;69.70;;;;;;5002262;28;92193;-42
2022/09/30 00:26:06;;;;;;;;;;;17.30;69.70;;;;;;5002304;28;92260;-41
2022/09/30 00:28:32;;;;;;;;;;;17.30;69.60;;;;;;5002084;28;92332;-41
2022/09/30 00:30:59;;;;;;;;;;;17.30;69.70;;;;;;5001180;28;93896;-41
2022/09/30 00:33:24;;;;;;;;;;;17.30;70.30;;;;;;5002127;28;92221;-42
2022/09/30 00:35:50;;;;;;;;;;;17.30;69.80;;;;;;5004502;28;92375;-41
2022/09/30 00:38:15;;;;;;;;;;;17.30;69.70;;;;;;5001998;28;92288;-41
2022/09/30 00:40:41;;;;;;;;;;;17.30;69.80;;;;;;5002121;28;92321;-41
2022/09/30 00:43:14;;;;;;;;;;;17.30;69.90;;;;;;5001366;28;93055;-42
2022/09/30 00:45:45;;;;;;;;;;;17.30;69.80;;;;;;5001779;28;92139;-41
2022/09/30 00:48:11;;;;;;;;;;;17.30;69.90;;;;;;5002069;28;92568;-41
2022/09/30 00:50:37;;;;;;;;;;;17.30;69.90;;;;;;5001066;28;93218;-41
2022/09/30 00:53:12;;;;;;;;;;;17.20;69.80;;;;;;5001750;28;92127;-42
2022/09/30 00:55:56;;;;;;;;;;;17.20;69.90;;;;;;5000989;28;93051;-41
2022/09/30 00:58:30;;;;;;;;;;;17.20;69.80;;;;;;5004230;28;93066;-42
2022/09/30 01:00:56;;;;;;;;;;;17.20;69.80;;;;;;5001275;28;92572;-41
2022/09/30 01:03:22;;;;;;;;;;;17.20;69.90;;;;;;5001236;28;92993;-41
2022/09/30 01:05:49;;;;;;;;;;;17.20;69.90;;;;;;5001833;28;92117;-41
2022/09/30 01:08:17;;;;;;;;;;;17.20;70.00;;;;;;5001765;28;91873;-41
2022/09/30 01:10:43;;;;;;;;;;;17.20;69.90;;;;;;5000822;28;93063;-41
2022/09/30 01:13:08;;;;;;;;;;;17.20;70.00;;;;;;5002139;28;92468;-41
2022/09/30 01:15:50;;;;;;;;;;;17.20;70.50;;;;;;5001314;28;92051;-41
2022/09/30 01:18:29;;;;;;;;;;;17.20;70.00;;;;;;5004158;28;93060;-41
2022/09/30 01:21:12;;;;;;;;;;;17.10;69.90;;;;;;5000895;28;93128;-41
2022/09/30 01:23:38;;;;;;;;;;;17.10;69.90;;;;;;5000925;28;93074;-42
2022/09/30 01:26:06;;;;;;;;;;;17.10;69.90;;;;;;5001279;28;92053;-41
2022/09/30 01:28:35;;;;;;;;;;;17.10;70.00;;;;;;5001187;28;92889;-41
2022/09/30 01:31:10;;;;;;;;;;;17.10;70.00;;;;;;5000796;28;93251;-41
2022/09/30 01:33:50;;;;;;;;;;;17.10;70.00;;;;;;5000121;28;92127;-41
2022/09/30 01:36:34;;;;;;;;;;;17.10;70.00;;;;;;5001193;28;92547;-41
2022/09/30 01:39:02;;;;;;;;;;;17.10;70.00;;;;;;5001164;28;92101;-41
2022/09/30 01:41:46;;;;;;;;;;;17.10;70.00;;;;;;5004210;28;92035;-41
2022/09/30 01:44:14;;;;;;;;;;;17.10;70.00;;;;;;5000464;28;93232;-41
2022/09/30 01:46:45;;;;;;;;;;;17.00;70.00;;;;;;5000384;28;93142;-41
2022/09/30 01:49:17;;;;;;;;;;;17.10;70.10;;;;;;5000686;28;93249;-41
2022/09/30 01:52:00;;;;;;;;;;;17.10;70.00;;;;;;5000501;28;93031;-41
2022/09/30 01:54:32;;;;;;;;;;;17.00;70.00;;;;;;5001091;28;91915;-41
2022/09/30 01:57:00;;;;;;;;;;;17.00;70.00;;;;;;5000495;28;92756;-41
2022/09/30 01:59:26;;;;;;;;;;;17.00;70.00;;;;;;5000111;28;92979;-41
2022/09/30 02:01:55;;;;;;;;;;;17.00;70.30;;;;;;5000334;28;92112;-41
2022/09/30 02:04:35;;;;;;;;;;;17.00;70.00;;;;;;5003865;28;92144;-41
2022/09/30 02:07:04;;;;;;;;;;;17.00;70.10;;;;;;5000751;28;92066;-41
2022/09/30 02:09:59;;;;;;;;;;;17.00;70.00;;;;;;4999982;28;92345;-41
2022/09/30 02:12:26;;;;;;;;;;;16.90;70.00;;;;;;4978921;28;93284;-41
2022/09/30 02:14:56;;;;;;;;;;;17.00;70.10;;;;;;5000789;28;92167;-41
2022/09/30 02:17:24;;;;;;;;;;;16.90;70.00;;;;;;5000345;28;92321;-41
2022/09/30 02:19:52;;;;;;;;;;;16.90;70.10;;;;;;4999795;28;93112;-41
2022/09/30 02:22:25;;;;;;;;;;;16.90;70.10;;;;;;5000258;28;92402;-41
2022/09/30 02:24:53;;;;;;;;;;;16.90;70.10;;;;;;5000301;28;92553;-41
2022/09/30 02:27:23;;;;;;;;;;;16.90;70.10;;;;;;5002776;28;93064;-41
2022/09/30 02:29:51;;;;;;;;;;;16.90;70.00;;;;;;5000777;28;92181;-41
2022/09/30 02:32:20;;;;;;;;;;;16.90;70.00;;;;;;4999558;28;93157;-41
2022/09/30 02:34:49;;;;;;;;;;;16.90;70.00;;;;;;5000039;28;92004;-41
2022/09/30 02:37:15;;;;;;;;;;;16.90;70.10;;;;;;4999191;28;93066;-41
2022/09/30 02:39:59;;;;;;;;;;;16.90;70.10;;;;;;4999461;28;93237;-41
2022/09/30 02:42:27;;;;;;;;;;;16.80;70.10;;;;;;4999830;28;92215;-41
2022/09/30 02:44:55;;;;;;;;;;;16.90;70.10;;;;;;4999777;28;92221;-41
2022/09/30 02:47:39;;;;;;;;;;;16.80;70.10;;;;;;4999388;28;93181;-41
2022/09/30 02:50:15;;;;;;;;;;;16.80;70.10;;;;;;5003320;28;92171;-41
2022/09/30 02:52:58;;;;;;;;;;;16.80;70.20;;;;;;4999212;28;93270;-41
2022/09/30 02:55:27;;;;;;;;;;;16.80;70.20;;;;;;5000464;28;91958;-41
2022/09/30 02:58:12;;;;;;;;;;;16.80;70.20;;;;;;4999899;28;92653;-41
2022/09/30 03:00:38;;;;;;;;;;;16.80;70.10;;;;;;4998639;28;93257;-41
2022/09/30 03:03:24;;;;;;;;;;;16.80;70.10;;;;;;4999172;28;93046;-41
2022/09/30 03:05:50;;;;;;;;;;;16.70;70.20;;;;;;4999048;28;93608;-41
2022/09/30 03:08:16;;;;;;;;;;;16.70;70.10;;;;;;4999405;28;93228;-41
2022/09/30 03:10:42;;;;;;;;;;;16.80;70.20;;;;;;4999247;28;92162;-41
2022/09/30 03:13:09;;;;;;;;;;;16.70;70.20;;;;;;5002036;28;92914;-41
2022/09/30 03:15:40;;;;;;;;;;;16.70;70.10;;;;;;4999606;28;92025;-41
2022/09/30 03:18:08;;;;;;;;;;;16.70;70.20;;;;;;4999690;28;92377;-41
2022/09/30 03:20:38;;;;;;;;;;;16.70;70.30;;;;;;4999520;28;91540;-41
2022/09/30 03:23:04;;;;;;;;;;;16.70;70.30;;;;;;4999177;28;92174;-41
2022/09/30 03:25:55;;;;;;;;;;;16.60;70.30;;;;;;4999604;28;92182;-41
2022/09/30 03:28:30;;;;;;;;;;;16.60;70.30;;;;;;4998325;28;94283;-41
2022/09/30 03:31:09;;;;;;;;;;;16.60;70.30;;;;;;4999416;28;92164;-41
2022/09/30 03:33:43;;;;;;;;;;;16.60;70.40;;;;;;5001782;28;92419;-41
2022/09/30 03:36:09;;;;;;;;;;;16.60;70.40;;;;;;4999352;28;91970;-41
2022/09/30 03:38:34;;;;;;;;;;;16.60;70.30;;;;;;4999526;28;92390;-41
2022/09/30 03:41:05;;;;;;;;;;;16.60;70.30;;;;;;4998804;28;93255;-41
2022/09/30 03:43:33;;;;;;;;;;;16.60;70.40;;;;;;4999266;28;92103;-41
2022/09/30 03:46:04;;;;;;;;;;;16.60;70.40;;;;;;4999677;28;92471;-41
2022/09/30 03:48:30;;;;;;;;;;;16.50;70.40;;;;;;4998648;28;93124;-41
2022/09/30 03:50:57;;;;;;;;;;;16.60;70.30;;;;;;4999174;28;92377;-41
2022/09/30 03:53:25;;;;;;;;;;;16.60;70.40;;;;;;4998584;28;92942;-41
2022/09/30 03:55:51;;;;;;;;;;;16.60;70.40;;;;;;5001625;28;93198;-41
2022/09/30 03:58:18;;;;;;;;;;;16.60;70.40;;;;;;5002119;28;92083;-41
2022/09/30 04:00:48;;;;;;;;;;;16.50;70.40;;;;;;5001640;28;93364;-41
2022/09/30 04:03:15;;;;;;;;;;;16.50;70.50;;;;;;5002733;28;92095;-42
2022/09/30 04:05:41;;;;;;;;;;;16.50;70.50;;;;;;5002425;28;92508;-42
2022/09/30 04:08:06;;;;;;;;;;;16.50;70.50;;;;;;5001927;28;93393;-42
2022/09/30 04:10:32;;;;;;;;;;;16.50;70.50;;;;;;5002830;28;91391;-42
2022/09/30 04:12:58;;;;;;;;;;;16.50;70.50;;;;;;5002580;28;92105;-42
2022/09/30 04:15:26;;;;;;;;;;;16.50;70.50;;;;;;5001804;28;93007;-42
2022/09/30 04:17:51;;;;;;;;;;;16.40;70.50;;;;;;5004862;28;93168;-42
2022/09/30 04:20:17;;;;;;;;;;;16.40;70.60;;;;;;5001844;28;92175;-42
2022/09/30 04:22:42;;;;;;;;;;;16.50;70.60;;;;;;5002122;28;92154;-42
2022/09/30 04:25:08;;;;;;;;;;;16.40;70.50;;;;;;5002085;28;92863;-42
2022/09/30 04:27:33;;;;;;;;;;;16.40;70.50;;;;;;5001807;28;93132;-42
2022/09/30 04:29:59;;;;;;;;;;;16.40;70.50;;;;;;5002294;28;92155;-42
2022/09/30 04:32:24;;;;;;;;;;;16.40;70.50;;;;;;5002150;28;92408;-42
2022/09/30 04:34:50;;;;;;;;;;;16.50;70.60;;;;;;5001957;28;92227;-42
2022/09/30 04:37:16;;;;;;;;;;;16.40;70.50;;;;;;5002225;28;92124;-42
2022/09/30 04:39:43;;;;;;;;;;;16.40;70.60;;;;;;5004583;28;92795;-42
2022/09/30 04:42:08;;;;;;;;;;;16.40;70.60;;;;;;5001180;28;93108;-42
2022/09/30 04:44:34;;;;;;;;;;;16.40;70.60;;;;;;5001881;28;93289;-42
2022/09/30 04:46:59;;;;;;;;;;;16.40;70.70;;;;;;5001390;28;93021;-42
2022/09/30 04:49:26;;;;;;;;;;;16.40;70.70;;;;;;5002101;28;92113;-42
2022/09/30 04:51:51;;;;;;;;;;;16.30;70.60;;;;;;5001744;28;92206;-42
2022/09/30 04:54:18;;;;;;;;;;;16.40;70.70;;;;;;5001306;28;93138;-42
2022/09/30 04:56:43;;;;;;;;;;;16.40;70.70;;;;;;5001751;28;92203;-42
2022/09/30 04:59:09;;;;;;;;;;;16.30;70.70;;;;;;5002282;28;92397;-42
2022/09/30 05:01:34;;;;;;;;;;;16.30;70.60;;;;;;5004280;28;93062;-42
2022/09/30 05:04:00;;;;;;;;;;;16.30;70.70;;;;;;5001823;28;92332;-42
2022/09/30 05:06:26;;;;;;;;;;;16.30;70.70;;;;;;4998968;28;95643;-42
2022/09/30 05:08:51;;;;;;;;;;;16.30;70.80;;;;;;5001285;28;92175;-42
2022/09/30 05:11:18;;;;;;;;;;;16.30;70.70;;;;;;5001663;28;92469;-42
2022/09/30 05:13:44;;;;;;;;;;;16.30;70.70;;;;;;5000999;28;93304;-42
2022/09/30 05:16:10;;;;;;;;;;;16.30;70.80;;;;;;5001161;28;92158;-42
2022/09/30 05:18:36;;;;;;;;;;;16.30;70.70;;;;;;5001502;28;92015;-42
2022/09/30 05:21:02;;;;;;;;;;;16.30;70.70;;;;;;5000948;28;93195;-42
2022/09/30 05:23:29;;;;;;;;;;;16.30;70.70;;;;;;5004830;28;91225;-42
2022/09/30 05:25:55;;;;;;;;;;;16.30;70.80;;;;;;5000787;28;92989;-42
2022/09/30 05:28:20;;;;;;;;;;;16.30;70.70;;;;;;5001281;28;92239;-42
2022/09/30 05:30:46;;;;;;;;;;;16.30;71.30;;;;;;5000463;28;92939;-42
2022/09/30 05:33:12;;;;;;;;;;;16.30;70.70;;;;;;5000712;28;92653;-42
2022/09/30 05:35:41;;;;;;;;;;;16.30;70.60;;;;;;5001242;28;92091;-42
2022/09/30 05:38:07;;;;;;;;;;;16.30;70.70;;;;;;5001057;28;92513;-42
2022/09/30 05:40:33;;;;;;;;;;;16.30;70.80;;;;;;5000606;28;93588;-42
2022/09/30 05:42:59;;;;;;;;;;;16.30;70.80;;;;;;5004103;28;92124;-42
2022/09/30 05:45:25;;;;;;;;;;;16.30;70.80;;;;;;5000336;28;93119;-42
2022/09/30 05:47:53;;;;;;;;;;;16.20;70.70;;;;;;5001631;28;91854;-41
2022/09/30 05:50:19;;;;;;;;;;;16.30;70.70;;;;;;5000798;28;91946;-42
2022/09/30 05:52:45;;;;;;;;;;;16.20;70.70;;;;;;5000398;28;92952;-42
2022/09/30 05:55:10;;;;;;;;;;;16.30;70.70;;;;;;5000150;28;93045;-42
2022/09/30 05:57:36;;;;;;;;;;;16.30;70.70;;;;;;5000861;28;93395;-42
2022/09/30 06:00:01;;;;;;;;;;;16.20;70.80;;;;;;5000217;28;92297;-42
2022/09/30 06:02:27;;;;;;;;;;;16.20;70.70;;;;;;5000525;28;92104;-42
2022/09/30 06:04:52;;;;;;;;;;;16.20;70.80;;;;;;5003322;28;92100;-42
2022/09/30 06:07:18;;;;;;;;;;;16.20;70.60;;;;;;5000823;28;92133;-42
2022/09/30 06:09:44;;;;;;;;;;;16.20;70.70;;;;;;5000154;28;92126;-42
2022/09/30 06:12:10;;;;;;;;;;;16.30;70.70;;;;;;5000631;28;91817;-42
2022/09/30 06:14:36;;;;;;;;;;;16.30;70.70;;;;;;5000580;28;92123;-42
2022/09/30 06:17:01;;;;;;;;;;;16.30;70.70;;;;;;5000471;28;92495;-42
2022/09/30 06:19:30;;;;;;;;;;;16.20;70.70;;;;;;4998602;28;93600;-42
2022/09/30 06:21:56;;;;;;;;;;;16.20;70.80;;;;;;5000322;28;92104;-42
2022/09/30 06:24:21;;;;;;;;;;;16.20;70.80;;;;;;5000378;28;92273;-42
2022/09/30 06:26:47;;;;;;;;;;;16.20;70.80;;;;;;5002809;28;92904;-42
2022/09/30 06:29:13;;;;;;;;;;;16.30;70.80;;;;;;5000508;28;92060;-42
2022/09/30 06:31:38;;;;;;;;;;;16.30;70.80;;;;;;4999865;28;92945;-42
2022/09/30 06:34:04;;;;;;;;;;;16.30;70.80;;;;;;5000385;28;92152;-42
2022/09/30 06:36:32;;;;;;;;;;;16.30;70.80;;;;;;5000501;28;92382;-41
2022/09/30 06:39:01;;;;;;;;;;;16.30;70.90;;;;;;4999607;28;92313;-42
2022/09/30 06:41:26;;;;;;;;;;;16.30;70.80;;;;;;5000158;28;92151;-42
2022/09/30 06:43:55;;;;;;;;;;;16.30;70.80;;;;;;4999434;28;92873;-42
2022/09/30 06:46:22;;;;;;;;;;;16.30;70.70;;;;;;4997914;28;93267;-42
2022/09/30 06:48:51;;;;;;;;;;;16.30;70.60;;;;;;5003057;28;92032;-42
2022/09/30 06:51:16;;;;;;;;;;;16.40;70.70;;;;;;4999496;28;93004;-42
2022/09/30 06:53:42;;;;;;;;;;;16.40;70.60;;;;;;5000035;28;92158;-42
2022/09/30 06:56:08;;;;;;;;;;;16.40;70.60;;;;;;5000058;28;92855;-42
2022/09/30 06:58:33;;;;;;;;;;;16.40;70.50;;;;;;4999201;28;92971;-40
2022/09/30 07:01:01;;;;;;;;;;;16.40;70.50;;;;;;5000145;28;91466;-41
2022/09/30 07:03:30;;;;;;;;;;;16.40;70.50;;;;;;4999624;28;91984;-42
2022/09/30 07:05:57;;;;;;;;;;;16.40;70.50;;;;;;4999164;28;92344;-42
2022/09/30 07:08:24;;;;;;;;;;;16.40;70.50;;;;;;4998753;28;93071;-42
2022/09/30 07:10:50;;;;;;;;;;;16.40;70.50;;;;;;5002141;28;93353;-42
2022/09/30 07:13:16;;;;;;;;;;;16.40;70.50;;;;;;4999513;28;92165;-42
2022/09/30 07:15:41;;;;;;;;;;;16.50;70.50;;;;;;4999560;28;92146;-42
2022/09/30 07:18:07;;;;;;;;;;;16.40;70.40;;;;;;4999155;28;93054;-42
2022/09/30 07:20:33;;;;;;;;;;;16.50;70.50;;;;;;4999525;28;92272;-42
2022/09/30 07:22:58;;;;;;;;;;;16.40;70.50;;;;;;4999733;28;92053;-42
2022/09/30 07:25:24;;;;;;;;;;;16.50;70.50;;;;;;4999616;28;92433;-42
2022/09/30 07:27:50;;;;;;;;;;;16.40;70.30;;;;;;4999382;28;92201;-42
2022/09/30 07:30:15;;;;;;;;;;;16.50;70.50;;;;;;5001909;28;92387;-42
2022/09/30 07:32:41;;;;;;;;;;;16.40;70.40;;;;;;4997857;28;93102;-42
2022/09/30 07:35:06;;;;;;;;;;;16.40;70.40;;;;;;4999452;28;93087;-42
2022/09/30 07:37:34;;;;;;;;;;;16.40;70.40;;;;;;4998645;28;93080;-42
2022/09/30 07:40:01;;;;;;;;;;;16.50;70.50;;;;;;4999211;28;92203;-42
2022/09/30 07:42:26;;;;;;;;;;;16.50;70.50;;;;;;4998872;28;92635;-42
2022/09/30 07:44:52;;;;;;;;;;;16.50;70.60;;;;;;4998646;28;93256;-42
2022/09/30 07:47:18;;;;;;;;;;;16.50;70.60;;;;;;4999131;28;92190;-42
2022/09/30 07:49:43;;;;;;;;;;;16.50;70.50;;;;;;4999686;28;92713;-42
2022/09/30 07:52:10;;;;;;;;;;;16.50;70.50;;;;;;5001707;28;93112;-42
2022/09/30 07:54:35;;;;;;;;;;;16.50;70.50;;;;;;4999027;28;92345;-42
2022/09/30 07:57:02;;;;;;;;;;;16.50;70.50;;;;;;4997747;28;93968;-42
2022/09/30 07:59:28;;;;;;;;;;;16.50;70.50;;;;;;4999076;28;92108;-42
2022/09/30 08:01:54;;;;;;;;;;;16.50;70.70;;;;;;4998866;28;92412;-42
2022/09/30 08:04:20;;;;;;;;;;;16.50;70.70;;;;;;4998722;28;92975;-42
2022/09/30 08:06:47;;;;;;;;;;;16.50;70.50;;;;;;4998951;28;92230;-42
2022/09/30 08:09:14;;;;;;;;;;;16.60;70.50;;;;;;4998582;28;92103;-43
2022/09/30 08:11:41;;;;;;;;;;;16.50;70.40;;;;;;4998277;28;94465;-42
2022/09/30 08:14:11;;;;;;;;;;;16.50;70.40;;;;;;5002499;28;91716;-43
2022/09/30 08:16:36;;;;;;;;;;;16.60;70.40;;;;;;4998005;28;93691;-42
2022/09/30 08:19:03;;;;;;;;;;;16.50;70.40;;;;;;4998912;28;92118;-42
2022/09/30 08:21:29;;;;;;;;;;;16.50;70.80;;;;;;4998200;28;92947;-42
2022/09/30 08:23:55;;;;;;;;;;;16.60;70.50;;;;;;4998153;28;93096;-42
2022/09/30 08:26:21;;;;;;;;;;;16.60;70.70;;;;;;4998578;28;92106;-42
2022/09/30 08:28:47;;;;;;;;;;;16.50;71.10;;;;;;4998747;28;92876;-42
2022/09/30 08:31:20;;;;;;;;;;;16.50;71.10;;;;;;4998324;28;92815;-42
2022/09/30 08:33:45;;;;;;;;;;;16.60;71.00;;;;;;4998793;28;92158;-42
2022/09/30 08:36:12;;;;;;;;;;;16.60;70.80;;;;;;5001285;28;92347;-42
2022/09/30 08:38:38;;;;;;;;;;;16.60;70.80;;;;;;4998872;28;91387;-43
2022/09/30 08:41:06;;;;;;;;;;;16.60;70.90;;;;;;4998489;28;92110;-42
2022/09/30 08:43:52;;;;;;;;;;;16.60;71.10;;;;;;5000079;28;93159;-43
2022/09/30 08:46:24;;;;;;;;;;;16.60;71.10;;;;;;5000788;28;93142;-42
2022/09/30 08:48:49;;;;;;;;;;;16.60;71.10;;;;;;5001986;28;93389;-42
2022/09/30 08:51:27;;;;;;;;;;;16.60;71.40;;;;;;5001673;28;93076;-42
2022/09/30 08:53:54;;;;;;;;;;;16.60;71.30;;;;;;5001875;28;92126;-42
2022/09/30 08:56:24;;;;;;;;;;;16.70;71.40;;;;;;5001893;28;92397;-42
2022/09/30 08:58:51;;;;;;;;;;;16.70;71.10;;;;;;5004092;28;93058;-42
2022/09/30 09:01:17;;;;;;;;;;;16.70;71.30;;;;;;5001573;28;92397;-42
2022/09/30 09:03:44;;;;;;;;;;;16.70;71.40;;;;;;5001823;28;92284;-42
2022/09/30 09:06:12;;;;;;;;;;;16.70;71.40;;;;;;5001474;28;92144;-41
2022/09/30 09:08:49;;;;;;;;;;;16.70;71.30;;;;;;5001354;28;92622;-42
2022/09/30 09:11:35;;;;;;;;;;;16.70;71.10;;;;;;5000432;28;94388;-42
2022/09/30 09:14:19;;;;;;;;;;;16.70;71.30;;;;;;4989539;28;92226;-42
2022/09/30 09:16:52;;;;;;;;;;;16.70;71.20;;;;;;5001386;28;92553;-42
2022/09/30 09:19:24;;;;;;;;;;;16.80;71.30;;;;;;5001186;28;93069;-42
2022/09/30 09:21:59;;;;;;;;;;;16.80;71.30;;;;;;5004571;28;92115;-42
2022/09/30 09:24:26;;;;;;;;;;;16.80;71.20;;;;;;5001058;28;93083;-42
2022/09/30 09:26:52;;;;;;;;;;;16.80;71.20;;;;;;5001331;28;92143;-42
2022/09/30 09:29:37;;;;;;;;;;;16.80;71.70;;;;;;5001681;28;92433;-42
2022/09/30 09:32:08;;;;;;;;;;;16.80;71.50;;;;;;5000957;28;93104;-42
2022/09/30 09:34:34;;;;;;;;;;;16.80;71.20;;;;;;5001285;28;92034;-42
2022/09/30 09:38:23;;;;;;;;;;;16.80;71.40;;;;;;5000530;28;92926;-42
2022/09/30 09:40:22;;;;;;;;;;;16.90;71.20;;;;;;4998260;28;93781;-42
2022/09/30 09:43:18;;;;;;;;;;;16.90;71.30;;;;;;5004490;28;92061;-42
2022/09/30 09:46:01;;;;;;;;;;;16.90;71.40;;;;;;4994703;28;93025;-42
2022/09/30 09:48:28;;;;;;;;;;;16.90;71.30;;;;;;5000822;28;92194;-42
2022/09/30 09:50:53;;;;;;;;;;;16.90;72.00;;;;;;5000967;28;92403;-42
2022/09/30 09:53:19;;;;;;;;;;;16.90;71.40;;;;;;5000388;28;93161;-42
2022/09/30 09:55:44;;;;;;;;;;;16.90;71.30;;;;;;5000404;28;91346;-42
2022/09/30 09:58:16;;;;;;;;;;;17.00;71.30;;;;;;5000855;28;92228;-42
2022/09/30 10:03:15;;;;;;;;;;;17.00;71.20;;;;;;4999760;28;93001;-42
2022/09/30 10:05:41;;;;;;;;;;;17.00;71.40;;;;;;5003001;28;93379;-42
2022/09/30 10:08:19;;;;;;;;;;;17.10;71.30;;;;;;5000856;28;92014;-42
2022/09/30 10:10:45;;;;;;;;;;;17.10;71.40;;;;;;5000398;28;92485;-42
2022/09/30 10:13:18;;;;;;;;;;;17.10;71.10;;;;;;5000154;28;92878;-42
2022/09/30 10:15:44;;;;;;;;;;;17.10;71.10;;;;;;5000290;28;92163;-42
2022/09/30 10:18:16;;;;;;;;;;;17.10;71.20;;;;;;4999036;28;95559;-42
2022/09/30 10:20:48;;;;;;;;;;;17.10;71.30;;;;;;5000516;28;92486;-42
2022/09/30 10:23:18;;;;;;;;;;;17.20;71.20;;;;;;5000752;28;92378;-42
2022/09/30 10:25:54;;;;;;;;;;;17.20;71.30;;;;;;5000416;28;92369;-42
2022/09/30 10:28:22;;;;;;;;;;;17.20;71.30;;;;;;5002144;28;94352;-42
2022/09/30 10:30:49;;;;;;;;;;;17.20;71.60;;;;;;5000334;28;93545;-42
2022/09/30 10:33:27;;;;;;;;;;;17.30;71.20;;;;;;4999604;28;93124;-42
2022/09/30 10:35:54;;;;;;;;;;;17.30;71.40;;;;;;5000526;28;92341;-42
2022/09/30 10:38:21;;;;;;;;;;;17.30;71.10;;;;;;5000047;28;92672;-42
2022/09/30 10:40:49;;;;;;;;;;;17.30;71.00;;;;;;4999699;28;93198;-43
2022/09/30 10:43:23;;;;;;;;;;;17.30;71.20;;;;;;5000131;28;92123;-42
2022/09/30 10:45:50;;;;;;;;;;;17.30;71.50;;;;;;5000518;28;92508;-42
2022/09/30 10:48:17;;;;;;;;;;;17.40;71.50;;;;;;4999602;28;93155;-42
2022/09/30 10:50:52;;;;;;;;;;;17.40;71.40;;;;;;5002827;28;92182;-42
2022/09/30 10:53:23;;;;;;;;;;;17.40;71.30;;;;;;4998895;28;93674;-42
2022/09/30 10:55:49;;;;;;;;;;;17.50;71.20;;;;;;5000117;28;92319;-42
2022/09/30 10:58:38;;;;;;;;;;;17.40;71.30;;;;;;4999612;28;92040;-42
2022/09/30 11:01:24;;;;;;;;;;;17.50;71.30;;;;;;4999235;28;93058;-42
2022/09/30 11:04:13;;;;;;;;;;;17.50;71.20;;;;;;4999686;28;92180;-43
2022/09/30 11:06:39;;;;;;;;;;;17.50;71.40;;;;;;4995659;28;92495;-42
2022/09/30 11:09:05;;;;;;;;;;;17.50;71.10;;;;;;4998764;28;92875;-42
2022/09/30 11:11:52;;;;;;;;;;;17.50;71.30;;;;;;4999994;28;91409;-42
2022/09/30 11:14:25;;;;;;;;;;;17.60;71.40;;;;;;5002476;28;92015;-42
2022/09/30 11:16:53;;;;;;;;;;;17.60;71.20;;;;;;4999538;28;92306;-42
2022/09/30 11:19:27;;;;;;;;;;;17.60;71.10;;;;;;4998989;28;93443;-43
2022/09/30 11:21:59;;;;;;;;;;;17.60;71.10;;;;;;4998796;28;93129;-42
2022/09/30 11:24:28;;;;;;;;;;;17.70;71.10;;;;;;4999569;28;92153;-42
2022/09/30 11:27:05;;;;;;;;;;;17.70;71.20;;;;;;4999409;28;92379;-42
2022/09/30 11:29:30;;;;;;;;;;;17.70;71.10;;;;;;4999056;28;93219;-42
2022/09/30 11:32:14;;;;;;;;;;;17.70;71.20;;;;;;4999653;28;92168;-43
2022/09/30 11:34:52;;;;;;;;;;;17.80;70.80;;;;;;4999164;28;92419;-42
2022/09/30 11:37:17;;;;;;;;;;;17.80;70.70;;;;;;5002431;28;92986;-42
2022/09/30 11:39:43;;;;;;;;;;;17.80;70.90;;;;;;4999349;28;92012;-42
2022/09/30 11:42:14;;;;;;;;;;;17.80;71.60;;;;;;4998867;28;93404;-42
2022/09/30 11:44:42;;;;;;;;;;;17.80;70.90;;;;;;4998633;28;93052;-42
2022/09/30 11:47:22;;;;;;;;;;;17.80;70.90;;;;;;4998979;28;92841;-42
2022/09/30 11:49:50;;;;;;;;;;;17.80;70.80;;;;;;4998764;28;92420;-42
2022/09/30 11:52:28;;;;;;;;;;;17.90;71.00;;;;;;4999185;28;92196;-42
2022/09/30 11:54:53;;;;;;;;;;;17.90;70.90;;;;;;4999099;28;92929;-42
2022/09/30 11:57:36;;;;;;;;;;;17.80;70.60;;;;;;5001736;28;93235;-42
2022/09/30 12:00:02;;;;;;;;;;;17.90;70.70;;;;;;4999130;28;92406;-42
2022/09/30 12:02:27;;;;;;;;;;;17.90;70.90;;;;;;4998916;28;92322;-42
2022/09/30 12:04:56;;;;;;;;;;;17.90;70.70;;;;;;4998862;28;92121;-42
2022/09/30 12:07:32;;;;;;;;;;;18.00;70.60;;;;;;4998719;28;92371;-42
2022/09/30 12:10:03;;;;;;;;;;;18.00;70.50;;;;;;4997591;28;94043;-42
2022/09/30 12:12:31;;;;;;;;;;;18.00;70.50;;;;;;4998766;28;92142;-42
2022/09/30 12:14:56;;;;;;;;;;;18.00;70.30;;;;;;4998622;28;92872;-42
2022/09/30 12:17:37;;;;;;;;;;;18.10;70.40;;;;;;4998636;28;93245;-42
2022/09/30 12:20:25;;;;;;;;;;;18.10;70.20;;;;;;5005256;28;92151;-43
2022/09/30 12:22:54;;;;;;;;;;;18.20;70.30;;;;;;5001416;28;93140;-43
2022/09/30 12:25:26;;;;;;;;;;;18.20;70.20;;;;;;5002087;28;92170;-42
2022/09/30 12:30:15;;;;;;;;;;;18.20;70.20;;;;;;5002558;28;92652;-42
2022/09/30 12:30:51;;;;;;;;;;;18.20;70.30;;;;;;5001390;28;93742;-42
2022/09/30 12:33:25;;;;;;;;;;;18.30;70.40;;;;;;5001914;28;92149;-42
2022/09/30 12:36:06;;;;;;;;;;;18.30;70.10;;;;;;5001605;28;93018;-42
2022/09/30 12:38:47;;;;;;;;;;;18.30;70.00;;;;;;5001411;28;93055;-42
2022/09/30 12:41:28;;;;;;;;;;;18.30;70.20;;;;;;5002006;28;92134;-42
2022/09/30 12:44:15;;;;;;;;;;;18.30;70.20;;;;;;5004708;28;91939;-42
2022/09/30 12:46:40;;;;;;;;;;;18.40;70.30;;;;;;5001849;28;91996;-42
2022/09/30 12:49:11;;;;;;;;;;;18.40;70.40;;;;;;5001733;28;92516;-42
2022/09/30 12:51:41;;;;;;;;;;;18.40;70.30;;;;;;5001436;28;92854;-42
2022/09/30 12:54:15;;;;;;;;;;;18.40;70.20;;;;;;5001883;28;91441;-42
2022/09/30 12:56:42;;;;;;;;;;;18.40;70.20;;;;;;5001675;28;91994;-43
2022/09/30 12:59:08;;;;;;;;;;;18.40;70.20;;;;;;5000936;28;93204;-42
2022/09/30 13:01:35;;;;;;;;;;;18.40;69.90;;;;;;5000926;28;92986;-42
2022/09/30 13:04:01;;;;;;;;;;;18.50;70.00;;;;;;5001496;28;93339;-42
2022/09/30 13:06:46;;;;;;;;;;;18.50;70.10;;;;;;5003943;28;93095;-43
2022/09/30 13:09:15;;;;;;;;;;;18.50;70.20;;;;;;5000791;28;93662;-42
2022/09/30 13:11:58;;;;;;;;;;;18.50;70.10;;;;;;5001109;28;93127;-43
2022/09/30 13:14:31;;;;;;;;;;;18.50;70.20;;;;;;5001730;28;92640;-42
2022/09/30 13:16:57;;;;;;;;;;;18.50;70.20;;;;;;5001282;28;92151;-42
2022/09/30 13:19:30;;;;;;;;;;;18.50;70.10;;;;;;5001394;28;92398;-42
2022/09/30 13:22:14;;;;;;;;;;;18.50;70.00;;;;;;5001571;28;92024;-42
2022/09/30 13:24:55;;;;;;;;;;;18.60;70.00;;;;;;5001292;28;92358;-42
2022/09/30 13:27:31;;;;;;;;;;;18.60;69.70;;;;;;4999992;28;93922;-42
2022/09/30 13:29:58;;;;;;;;;;;18.60;69.60;;;;;;5004452;28;92074;-43
2022/09/30 13:32:36;;;;;;;;;;;18.60;69.90;;;;;;5000543;28;93038;-42
2022/09/30 13:35:01;;;;;;;;;;;18.60;70.40;;;;;;5001162;28;92045;-42
2022/09/30 13:37:36;;;;;;;;;;;18.70;69.80;;;;;;5001247;28;92400;-42
2022/09/30 13:40:03;;;;;;;;;;;18.70;69.90;;;;;;5000482;28;92927;-42
2022/09/30 13:42:31;;;;;;;;;;;18.70;70.00;;;;;;5000976;28;92137;-42
2022/09/30 13:45:12;;;;;;;;;;;18.70;70.00;;;;;;5001337;28;91661;-42
2022/09/30 13:47:48;;;;;;;;;;;18.80;69.90;;;;;;5000433;28;93091;-42
2022/09/30 13:50:26;;;;;;;;;;;18.70;70.00;;;;;;5000834;28;92117;-42
2022/09/30 13:52:54;;;;;;;;;;;18.80;70.00;;;;;;5002715;28;92863;-42
2022/09/30 13:55:23;;;;;;;;;;;18.80;70.00;;;;;;5000619;28;92080;-42
2022/09/30 13:57:48;;;;;;;;;;;18.80;69.90;;;;;;5000611;28;92372;-42
2022/09/30 14:00:17;;;;;;;;;;;18.80;69.90;;;;;;5000291;28;92964;-42
2022/09/30 14:02:43;;;;;;;;;;;18.90;70.00;;;;;;5000438;28;92374;-42
2022/09/30 14:05:27;;;;;;;;;;;18.80;69.90;;;;;;5000404;28;92092;-43
2022/09/30 14:08:11;;;;;;;;;;;18.90;70.00;;;;;;5000188;28;93218;-42
2022/09/30 14:10:57;;;;;;;;;;;18.90;69.80;;;;;;5001034;28;91620;-42
2022/09/30 14:13:32;;;;;;;;;;;18.90;69.80;;;;;;5002712;28;92184;-42
2022/09/30 14:16:07;;;;;;;;;;;18.90;69.80;;;;;;5000322;28;92191;-42
2022/09/30 14:18:33;;;;;;;;;;;18.90;69.90;;;;;;5000040;28;93586;-42
2022/09/30 14:21:16;;;;;;;;;;;18.90;69.70;;;;;;4999806;28;93243;-42
2022/09/30 14:23:42;;;;;;;;;;;18.90;69.80;;;;;;5000312;28;92008;-45
2022/09/30 14:26:08;;;;;;;;;;;19.00;69.90;;;;;;5018169;28;92447;-48
2022/09/30 14:28:41;;;;;;;;;;;19.00;68.30;;;;;;5019919;28;93800;-43
2022/09/30 14:31:12;;;;;;;;;;;19.10;66.80;;;;;;5019917;28;92097;-46
2022/09/30 14:33:39;;;;;;;;;;;19.20;66.20;;;;;;5020399;28;92393;-42
2022/09/30 14:36:14;;;;;;;;;;;19.20;66.90;;;;;;5023216;28;92294;-48